Time;durP1;ratioP1;P1;durP2;ratioP2;P2;SDS_P1;SDS_P2;PMS_P1;PMS_P2;Temp;Humidity;BMP_temperature;BMP_pressure;BME280_temperature;BME280_humidity;BME280_pressure;Samples;Min_cycle;Max_cycle;Signal;HPM_P1;HPM_P2
2023/10/12 00:02:32;;;;;;;6.65;1.30;;;13.60;99.90;;;;;;5021959;28;20341;-71
2023/10/12 00:05:03;;;;;;;7.45;1.10;;;13.60;99.90;;;;;;5050763;28;20123;-71
2023/10/12 00:12:59;;;;;;;;;;;13.60;99.90;;;;;;5026170;28;20059;-71
2023/10/12 00:15:28;;;;;;;5.10;0.95;;;13.60;99.90;;;;;;5052121;28;20166;-71
2023/10/12 00:17:59;;;;;;;5.75;1.27;;;13.60;99.90;;;;;;5048402;28;20037;-71
2023/10/12 00:22:55;;;;;;;6.28;1.95;;;13.70;99.90;;;;;;5054085;28;20048;-71
2023/10/12 00:25:20;;;;;;;8.82;1.15;;;13.70;99.90;;;;;;5051451;28;20045;-71
2023/10/12 00:27:47;;;;;;;5.65;1.20;;;13.70;99.90;;;;;;5052471;28;20041;-71
2023/10/12 00:30:14;;;;;;;6.53;0.93;;;13.70;99.90;;;;;;5051440;28;20480;-71
2023/10/12 00:32:41;;;;;;;5.55;1.75;;;13.60;99.90;;;;;;5038866;28;20036;-71
2023/10/12 00:35:13;;;;;;;6.18;1.38;;;13.70;99.90;;;;;;5056564;28;20068;-71
2023/10/12 00:37:41;;;;;;;7.32;1.33;;;13.70;99.90;;;;;;5037421;28;20121;-71
2023/10/12 00:40:31;;;;;;;6.30;1.08;;;13.70;99.90;;;;;;5053986;28;20052;-71
2023/10/12 00:43:00;;;;;;;6.18;0.90;;;13.60;99.90;;;;;;5058117;28;20515;-71
2023/10/12 00:45:29;;;;;;;4.97;1.00;;;13.60;99.90;;;;;;5054146;28;20072;-71
2023/10/12 00:48:06;;;;;;;6.53;1.20;;;13.70;99.90;;;;;;5049788;28;20098;-71
2023/10/12 00:50:33;;;;;;;9.80;1.20;;;13.70;99.90;;;;;;5049820;28;20091;-71
2023/10/12 00:53:14;;;;;;;3.97;1.23;;;13.70;99.90;;;;;;5062333;28;20095;-71
2023/10/12 00:55:41;;;;;;;7.05;1.00;;;13.70;99.90;;;;;;5050651;28;20152;-71
2023/10/12 00:58:10;;;;;;;5.30;1.08;;;13.70;99.90;;;;;;5054195;28;20505;-71
2023/10/12 01:00:46;;;;;;;8.93;1.45;;;13.80;99.90;;;;;;5051738;28;20373;-71
2023/10/12 01:08:42;;;;;;;6.10;1.33;;;13.70;99.90;;;;;;5058145;28;20059;-71
2023/10/12 01:11:21;;;;;;;5.78;1.20;;;13.70;99.90;;;;;;5051140;28;20212;-71
2023/10/12 01:13:49;;;;;;;8.82;1.40;;;13.70;99.90;;;;;;5054921;28;20109;-71
2023/10/12 01:16:25;;;;;;;8.07;1.45;;;13.70;99.90;;;;;;5057379;28;20061;-71
2023/10/12 01:19:05;;;;;;;6.82;1.55;;;13.70;99.90;;;;;;5057718;28;20045;-71
2023/10/12 01:21:35;;;;;;;6.88;1.60;;;13.70;99.90;;;;;;5049466;28;20045;-71
2023/10/12 01:24:11;;;;;;;8.90;1.45;;;13.70;99.90;;;;;;5047329;28;20064;-71
2023/10/12 01:26:38;;;;;;;4.28;1.00;;;13.60;99.90;;;;;;5053026;28;20045;-71
2023/10/12 01:29:04;;;;;;;7.45;1.20;;;13.60;99.90;;;;;;5056180;28;20047;-71
2023/10/12 01:31:35;;;;;;;6.95;1.13;;;13.60;99.90;;;;;;5028482;28;20033;-71
2023/10/12 01:34:04;;;;;;;4.55;0.93;;;13.60;99.90;;;;;;5053586;28;20056;-71
2023/10/12 01:36:31;;;;;;;5.80;1.30;;;13.60;99.90;;;;;;5033371;28;20033;-71
2023/10/12 01:39:15;;;;;;;5.47;1.25;;;13.60;99.90;;;;;;5058337;28;20070;-71
2023/10/12 01:41:41;;;;;;;4.57;1.20;;;13.60;99.90;;;;;;5032724;28;20071;-71
2023/10/12 01:44:11;;;;;;;7.05;1.85;;;13.60;99.90;;;;;;5051606;28;20076;-71
2023/10/12 01:46:49;;;;;;;4.25;1.65;;;13.60;99.90;;;;;;5052988;28;20064;-71
2023/10/12 01:49:18;;;;;;;8.05;1.20;;;13.60;99.90;;;;;;5049374;28;20052;-72
2023/10/12 01:51:48;;;;;;;9.77;1.42;;;13.60;99.90;;;;;;5052654;28;20079;-73
2023/10/12 01:54:22;;;;;;;6.47;1.17;;;13.60;99.90;;;;;;5054274;28;22379;-72
2023/10/12 01:56:55;;;;;;;7.22;1.70;;;13.50;99.90;;;;;;5055160;28;20055;-71
2023/10/12 01:59:22;;;;;;;11.77;1.67;;;13.60;99.90;;;;;;5052220;28;20104;-71
2023/10/12 02:01:56;;;;;;;8.30;1.15;;;13.50;99.90;;;;;;5035413;28;20055;-70
2023/10/12 02:04:25;;;;;;;6.32;1.30;;;13.50;99.90;;;;;;5048642;28;20037;-70
2023/10/12 02:06:53;;;;;;;7.05;1.30;;;13.50;99.90;;;;;;5049081;28;20048;-70
2023/10/12 02:09:22;;;;;;;5.90;1.25;;;13.50;99.90;;;;;;5046167;28;20596;-69
2023/10/12 02:11:53;;;;;;;7.60;1.60;;;13.50;99.90;;;;;;5031137;28;20043;-69
2023/10/12 02:14:33;;;;;;;14.10;1.58;;;13.40;99.90;;;;;;5039834;28;20040;-71
2023/10/12 02:17:02;;;;;;;3.70;0.90;;;13.40;99.90;;;;;;5053745;28;20044;-71
2023/10/12 02:19:49;;;;;;;4.82;1.27;;;13.40;99.90;;;;;;5050124;28;20048;-71
2023/10/12 02:27:42;;;;;;;8.52;1.35;;;13.40;99.90;;;;;;5056547;28;20449;-71
2023/10/12 02:30:18;;;;;;;;;;;13.40;99.90;;;;;;5053037;28;20088;-71
2023/10/12 02:32:48;;;;;;;6.25;1.25;;;13.40;99.90;;;;;;5049325;28;19920;-71
2023/10/12 02:35:19;;;;;;;8.05;1.63;;;13.40;99.90;;;;;;5046424;28;20041;-71
2023/10/12 02:37:46;;;;;;;7.55;0.98;;;13.40;99.90;;;;;;5045954;28;20049;-71
2023/10/12 02:40:12;;;;;;;3.92;0.73;;;13.40;99.90;;;;;;5038755;28;20056;-71
2023/10/12 02:42:41;;;;;;;3.70;1.05;;;13.30;99.90;;;;;;5051987;28;20509;-71
2023/10/12 02:47:42;;;;;;;3.58;1.00;;;13.30;99.90;;;;;;5055604;28;20040;-71
2023/10/12 02:52:36;;;;;;;3.88;0.73;;;13.20;99.90;;;;;;5055218;28;20191;-71
2023/10/12 02:57:59;;;;;;;4.35;1.02;;;13.20;99.90;;;;;;5055234;28;20639;-71
2023/10/12 03:00:35;;;;;;;5.43;1.02;;;13.20;99.90;;;;;;5046223;28;20106;-71
2023/10/12 03:03:17;;;;;;;6.28;1.33;;;13.20;99.90;;;;;;5045596;28;20057;-71
2023/10/12 03:05:46;;;;;;;4.55;0.95;;;13.10;99.90;;;;;;5050449;28;20044;-71
2023/10/12 03:08:19;;;;;;;4.50;0.80;;;13.10;99.90;;;;;;5055689;28;20524;-71
2023/10/12 03:13:27;;;;;;;5.40;0.70;;;13.10;99.90;;;;;;5051294;28;20052;-71
2023/10/12 03:16:03;;;;;;;5.45;0.88;;;13.00;99.90;;;;;;5056968;28;20170;-71
2023/10/12 03:18:29;;;;;;;3.63;0.85;;;13.00;99.90;;;;;;5059147;28;20056;-71
2023/10/12 03:21:05;;;;;;;5.45;1.30;;;13.00;99.90;;;;;;5038485;28;20036;-71
2023/10/12 03:23:34;;;;;;;8.95;1.63;;;13.00;99.90;;;;;;5051259;28;20067;-71
2023/10/12 03:26:17;;;;;;;7.57;1.27;;;13.00;99.90;;;;;;5052959;28;20044;-71
2023/10/12 03:28:45;;;;;;;8.48;1.30;;;13.00;99.90;;;;;;5045449;28;20091;-71
2023/10/12 03:31:33;;;;;;;10.35;1.15;;;12.90;99.90;;;;;;5047979;28;20381;-71
2023/10/12 03:34:13;;;;;;;3.30;1.17;;;12.90;99.90;;;;;;5053291;28;20127;-71
2023/10/12 03:36:45;;;;;;;5.10;1.05;;;12.90;99.90;;;;;;5054791;28;20091;-71
2023/10/12 03:52:34;;;;;;;9.70;1.17;;;12.80;99.90;;;;;;5053858;28;20480;-71
2023/10/12 03:55:49;;;;;;;2.97;0.93;;;12.80;99.90;;;;;;5056236;28;20041;-71
2023/10/12 03:58:05;;;;;;;4.30;1.05;;;12.80;99.90;;;;;;5050943;28;20182;-71
2023/10/12 04:00:35;;;;;;;5.45;1.05;;;12.80;99.90;;;;;;5071661;28;20040;-71
2023/10/12 04:03:06;;;;;;;6.05;1.25;;;12.80;99.90;;;;;;5059781;28;20462;-71
2023/10/12 04:08:01;;;;;;;6.97;1.17;;;12.80;99.90;;;;;;5051654;28;20048;-71
2023/10/12 04:18:32;;;;;;;;;;;12.70;99.90;;;;;;5052580;28;20045;-70
2023/10/12 04:20:58;;;;;;;;;;;12.80;99.90;;;;;;5024188;28;19917;-70
2023/10/12 04:26:27;;;;;;;7.55;1.27;;;12.70;99.90;;;;;;5054077;28;20040;-71
2023/10/12 04:29:30;;;;;;;9.07;1.20;;;12.60;99.90;;;;;;5057439;28;20048;-71
2023/10/12 04:31:49;;;;;;;4.05;1.33;;;12.70;99.90;;;;;;5039740;28;20052;-70
2023/10/12 04:34:26;;;;;;;3.10;0.57;;;12.70;99.90;;;;;;5059821;28;20459;-70
2023/10/12 04:37:11;;;;;;;6.15;0.80;;;12.70;99.90;;;;;;5053186;28;20124;-70
2023/10/12 04:39:37;;;;;;;5.47;0.93;;;12.70;99.90;;;;;;5057593;28;20987;-70
2023/10/12 04:42:05;;;;;;;9.88;1.00;;;12.70;99.90;;;;;;5061330;28;20466;-70
2023/10/12 04:47:04;;;;;;;10.48;1.30;;;12.60;99.90;;;;;;5052186;28;20047;-70
2023/10/12 04:57:33;;;;;;;8.70;1.25;;;12.60;99.90;;;;;;5054688;28;20048;-70
2023/10/12 05:00:48;;;;;;;5.15;1.38;;;12.60;99.90;;;;;;5043593;28;20055;-70
2023/10/12 05:07:59;;;;;;;6.63;1.17;;;12.60;99.90;;;;;;5053860;28;20052;-74
2023/10/12 05:10:28;;;;;;;5.75;1.13;;;12.50;99.90;;;;;;5057066;28;20051;-72
2023/10/12 05:13:03;;;;;;;7.20;1.08;;;12.60;99.90;;;;;;5046146;28;20033;-72
2023/10/12 05:15:42;;;;;;;4.93;1.27;;;12.50;99.90;;;;;;5050789;28;20515;-72
2023/10/12 05:18:12;;;;;;;8.65;1.90;;;12.60;99.90;;;;;;5052525;28;20066;-72
2023/10/12 05:20:41;;;;;;;8.25;1.38;;;12.60;99.90;;;;;;5053855;28;20156;-71
2023/10/12 05:23:07;;;;;;;9.18;0.93;;;12.60;99.90;;;;;;5049537;28;20276;-72
2023/10/12 05:25:47;;;;;;;6.68;0.65;;;12.50;99.90;;;;;;5053256;28;20069;-72
2023/10/12 05:28:18;;;;;;;3.63;0.90;;;12.50;99.90;;;;;;5051572;28;20056;-72
2023/10/12 05:30:59;;;;;;;4.60;1.40;;;12.60;99.90;;;;;;5049979;28;20067;-70
2023/10/12 05:33:38;;;;;;;5.47;1.05;;;12.60;99.90;;;;;;5051584;28;20041;-71
2023/10/12 05:36:11;;;;;;;8.82;0.68;;;12.50;99.90;;;;;;5048959;28;20051;-71
2023/10/12 05:39:27;;;;;;;4.65;1.17;;;12.50;99.90;;;;;;5059626;28;20514;-71
2023/10/12 05:43:59;;;;;;;5.47;0.85;;;12.40;99.90;;;;;;5054381;28;20062;-69
2023/10/12 05:46:33;;;;;;;4.13;1.10;;;12.40;99.90;;;;;;5046604;28;20080;-73
2023/10/12 05:48:59;;;;;;;4.60;1.20;;;12.40;99.90;;;;;;5053538;28;20087;-75
2023/10/12 05:51:25;;;;;;;6.47;1.00;;;12.30;99.90;;;;;;5037402;28;20592;-72
2023/10/12 05:54:03;;;;;;;6.22;1.25;;;12.30;99.90;;;;;;5052941;28;20131;-76
2023/10/12 05:56:36;;;;;;;11.88;1.75;;;12.20;99.90;;;;;;5057352;28;20055;-72
2023/10/12 05:59:09;;;;;;;3.88;0.80;;;12.20;99.90;;;;;;5051734;28;20040;-74
2023/10/12 06:01:38;;;;;;;4.88;1.00;;;12.10;99.90;;;;;;5044664;28;20582;-73
2023/10/12 06:04:07;;;;;;;8.45;1.42;;;12.20;99.90;;;;;;5049505;28;20580;-72
2023/10/12 06:06:41;;;;;;;4.32;1.00;;;12.10;99.90;;;;;;5047801;28;20127;-71
2023/10/12 06:09:54;;;;;;;4.65;1.13;;;12.00;99.90;;;;;;5055350;28;20029;-69
2023/10/12 06:12:06;;;;;;;3.35;1.10;;;12.00;99.90;;;;;;5045697;28;20048;-70
2023/10/12 06:14:35;;;;;;;6.22;1.60;;;11.90;99.90;;;;;;5053103;28;20041;-69
2023/10/12 06:17:02;;;;;;;9.32;2.10;;;11.90;99.90;;;;;;5043307;28;20037;-69
2023/10/12 06:19:34;;;;;;;6.47;1.60;;;11.90;99.90;;;;;;5047580;28;20041;-69
2023/10/12 06:22:13;;;;;;;8.93;1.77;;;11.80;99.90;;;;;;5045170;28;20052;-69
2023/10/12 06:24:43;;;;;;;3.25;1.50;;;11.80;99.90;;;;;;5052735;28;20382;-69
2023/10/12 06:29:47;;;;;;;7.25;1.48;;;11.80;99.90;;;;;;5056389;28;20382;-70
2023/10/12 06:32:31;;;;;;;5.35;1.20;;;11.80;99.90;;;;;;5042594;28;20044;-70
2023/10/12 06:45:51;;;;;;;7.30;1.80;;;11.70;99.90;;;;;;5055718;28;20137;-69
2023/10/12 06:51:10;;;;;;;6.65;1.85;;;11.80;99.90;;;;;;5054863;28;20172;-69
2023/10/12 06:53:41;;;;;;;5.93;1.50;;;11.80;99.90;;;;;;5061610;28;20497;-68
2023/10/12 06:56:50;;;;;;;4.43;1.00;;;11.80;99.90;;;;;;5055914;28;20052;-69
2023/10/12 07:01:51;;;;;;;4.60;1.75;;;11.80;99.90;;;;;;5055984;28;20393;-69
2023/10/12 07:04:38;;;;;;;9.20;1.52;;;11.90;99.90;;;;;;5058477;28;20040;-69
2023/10/12 07:07:07;;;;;;;7.90;1.90;;;12.00;99.90;;;;;;5044171;28;20041;-69
2023/10/12 07:09:42;;;;;;;6.60;1.52;;;12.00;99.90;;;;;;5053666;28;20049;-69
2023/10/12 07:12:18;;;;;;;7.35;1.52;;;12.10;99.90;;;;;;5053998;28;20195;-69
2023/10/12 07:14:47;;;;;;;8.90;2.20;;;12.10;99.90;;;;;;5054080;28;20090;-69
2023/10/12 07:17:17;;;;;;;3.55;1.58;;;12.20;99.90;;;;;;5052677;28;20094;-69
2023/10/12 07:19:55;;;;;;;9.93;1.30;;;12.20;99.90;;;;;;5053998;28;20028;-69
2023/10/12 07:22:21;;;;;;;21.50;2.78;;;12.20;99.90;;;;;;5051996;28;20039;-69
2023/10/12 07:24:54;;;;;;;;;;;12.30;99.90;;;;;;5058787;28;20040;-68
2023/10/12 07:27:23;;;;;;;10.50;2.10;;;12.40;99.90;;;;;;5052520;28;19927;-69
2023/10/12 07:32:55;;;;;;;9.43;1.10;;;12.50;99.90;;;;;;5052194;28;20028;-69
2023/10/12 07:35:34;;;;;;;4.20;0.98;;;12.60;99.90;;;;;;5034790;28;20045;-69
2023/10/12 07:38:02;;;;;;;7.38;1.10;;;12.60;99.90;;;;;;5050171;28;20044;-68
2023/10/12 07:40:36;;;;;;;6.75;1.02;;;12.70;99.90;;;;;;5055594;28;20041;-69
2023/10/12 07:43:07;;;;;;;10.05;1.27;;;12.70;99.90;;;;;;5047712;28;20045;-69
2023/10/12 07:45:38;;;;;;;5.90;1.30;;;12.80;99.90;;;;;;5050081;28;20048;-69
2023/10/12 07:48:09;;;;;;;6.05;1.15;;;12.90;99.90;;;;;;5056639;28;20080;-69
2023/10/12 07:50:45;;;;;;;5.93;1.40;;;13.00;99.90;;;;;;5036453;28;20044;-69
2023/10/12 07:53:24;;;;;;;7.65;1.30;;;13.00;99.90;;;;;;5070051;28;20393;-69
2023/10/12 07:56:00;;;;;;;3.10;1.20;;;13.00;99.90;;;;;;5050772;28;20497;-69
2023/10/12 07:58:29;;;;;;;6.22;1.58;;;13.00;99.90;;;;;;5050235;28;20497;-69
2023/10/12 08:04:00;;;;;;;10.55;1.58;;;13.10;99.90;;;;;;5013750;28;20091;-70
2023/10/12 08:11:48;;;;;;;4.90;1.33;;;13.30;99.90;;;;;;5053548;28;20123;-73
2023/10/12 08:17:24;;;;;;;9.75;1.25;;;13.30;99.90;;;;;;5058210;28;20045;-73
2023/10/12 08:19:39;;;;;;;7.13;1.27;;;13.30;99.90;;;;;;5048553;28;20351;-73
2023/10/12 08:22:09;;;;;;;7.35;1.35;;;13.30;99.90;;;;;;5052850;28;20390;-72
2023/10/12 08:24:36;;;;;;;3.95;1.05;;;13.40;99.90;;;;;;5046374;28;20086;-72
2023/10/12 08:27:05;;;;;;;3.55;1.10;;;13.40;99.90;;;;;;5051139;28;20531;-72
2023/10/12 08:39:51;;;;;;;8.70;1.27;;;13.60;99.90;;;;;;5048007;28;20413;-73
2023/10/12 08:44:58;;;;;;;7.88;1.40;;;13.60;99.90;;;;;;5051494;28;20412;-71
2023/10/12 08:47:31;;;;;;;7.15;1.20;;;13.60;99.90;;;;;;5049334;28;20037;-71
2023/10/12 08:52:31;;;;;;;6.68;1.17;;;13.70;99.90;;;;;;5056236;28;20029;-72
2023/10/12 08:55:11;;;;;;;6.95;0.95;;;13.70;99.90;;;;;;5055762;28;20521;-73
2023/10/12 08:58:15;;;;;;;5.68;0.95;;;13.80;99.90;;;;;;5057492;28;20050;-71
2023/10/12 09:01:31;;;;;;;5.95;1.25;;;13.80;99.90;;;;;;5053036;28;20037;-72
2023/10/12 09:03:39;;;;;;;10.73;1.55;;;13.80;99.90;;;;;;5050945;28;20094;-73
2023/10/12 09:06:19;;;;;;;11.98;1.45;;;13.90;99.90;;;;;;5051223;28;20049;-71
2023/10/12 09:08:46;;;;;;;6.95;1.30;;;13.90;99.90;;;;;;5049055;28;20630;-72
2023/10/12 09:13:38;;;;;;;4.07;1.60;;;13.90;99.90;;;;;;5054008;28;19973;-72
2023/10/12 09:16:14;;;;;;;9.07;1.40;;;14.00;99.90;;;;;;5049274;28;20037;-72
2023/10/12 09:18:47;;;;;;;7.07;1.45;;;14.00;99.90;;;;;;5047576;28;20194;-72
2023/10/12 09:23:49;;;;;;;6.38;1.20;;;14.10;99.90;;;;;;5048676;28;20041;-72
2023/10/12 09:26:19;;;;;;;5.30;1.73;;;14.10;99.90;;;;;;5061976;28;20044;-72
2023/10/12 09:36:37;;;;;;;5.00;1.17;;;14.30;99.90;;;;;;5057356;28;20067;-71
2023/10/12 09:39:03;;;;;;;3.97;0.88;;;14.50;99.90;;;;;;5048884;28;20497;-72
2023/10/12 09:41:33;;;;;;;;;;;14.60;99.90;;;;;;5047118;28;20044;-71
2023/10/12 09:44:04;;;;;;;8.93;0.95;;;14.70;99.90;;;;;;5051910;28;20337;-72
2023/10/12 09:46:33;;;;;;;3.70;0.85;;;14.80;99.90;;;;;;5059162;28;20045;-71
2023/10/12 09:49:44;;;;;;;4.22;0.80;;;14.90;99.90;;;;;;5046895;28;20570;-71
2023/10/12 09:51:55;;;;;;;2.17;0.88;;;14.90;99.90;;;;;;5066901;28;20041;-71
2023/10/12 09:54:30;;;;;;;5.07;0.80;;;14.90;99.90;;;;;;5054921;28;20033;-72
2023/10/12 09:57:16;;;;;;;6.32;1.25;;;15.00;99.90;;;;;;5049262;28;20566;-72
2023/10/12 09:59:51;;;;;;;8.27;1.25;;;15.00;99.90;;;;;;5054654;28;20451;-71
2023/10/12 10:02:27;;;;;;;5.20;0.98;;;15.10;99.90;;;;;;5057063;28;20036;-71
2023/10/12 10:05:04;;;;;;;5.05;1.10;;;15.20;99.90;;;;;;5053997;28;20082;-71
2023/10/12 10:07:38;;;;;;;7.50;1.00;;;15.20;99.90;;;;;;5042492;28;20132;-71
2023/10/12 10:10:05;;;;;;;4.00;1.30;;;15.40;99.90;;;;;;5053191;28;20170;-72
2023/10/12 10:12:42;;;;;;;5.15;1.40;;;15.50;99.90;;;;;;5052229;28;20036;-72
2023/10/12 10:15:20;;;;;;;3.42;0.73;;;15.50;99.90;;;;;;5037625;28;20071;-72
2023/10/12 10:17:53;;;;;;;10.15;1.15;;;15.60;99.90;;;;;;5056549;28;20511;-71
2023/10/12 10:23:01;;;;;;;4.40;0.85;;;15.70;99.90;;;;;;5060018;28;20597;-71
2023/10/12 10:25:35;;;;;;;6.85;0.80;;;15.90;99.90;;;;;;5058337;28;20615;-71
2023/10/12 10:28:09;;;;;;;6.00;1.63;;;16.00;99.90;;;;;;5055023;28;20040;-71
2023/10/12 10:30:42;;;;;;;7.30;1.60;;;16.00;99.90;;;;;;5053074;28;20037;-72
2023/10/12 10:33:20;;;;;;;6.43;0.80;;;16.10;99.90;;;;;;5046781;28;20051;-71
2023/10/12 10:38:53;;;;;;;5.65;0.80;;;16.10;99.90;;;;;;5053344;28;20674;-72
2023/10/12 10:41:38;;;;;;;6.72;0.80;;;16.10;99.90;;;;;;5050754;28;20044;-72
2023/10/12 10:44:17;;;;;;;8.15;0.90;;;16.10;99.90;;;;;;5052865;28;20512;-71
2023/10/12 10:46:46;;;;;;;4.30;0.82;;;16.10;99.90;;;;;;5048518;28;20605;-71
2023/10/12 10:49:16;;;;;;;4.85;0.73;;;16.20;99.90;;;;;;5052493;28;20119;-71
2023/10/12 10:51:47;;;;;;;6.22;1.48;;;16.20;99.90;;;;;;5041682;28;20131;-72
2023/10/12 10:54:18;;;;;;;7.47;0.90;;;16.20;99.90;;;;;;5054978;28;20497;-72
2023/10/12 10:56:47;;;;;;;6.65;1.08;;;16.30;99.90;;;;;;5054812;28;20087;-71
2023/10/12 10:59:17;;;;;;;4.95;0.60;;;16.20;99.90;;;;;;5056650;28;20461;-72
2023/10/12 11:01:50;;;;;;;3.00;0.70;;;16.30;99.90;;;;;;5060346;28;20045;-72
2023/10/12 11:07:04;;;;;;;5.75;1.05;;;16.30;99.90;;;;;;5053934;28;20041;-72
2023/10/12 11:12:20;;;;;;;7.22;1.08;;;16.30;99.90;;;;;;5056472;28;20041;-72
2023/10/12 11:17:40;;;;;;;5.32;0.85;;;16.40;99.90;;;;;;5054413;28;20075;-71
2023/10/12 11:23:10;;;;;;;6.45;0.98;;;16.40;99.90;;;;;;5052689;28;20036;-72
2023/10/12 11:25:39;;;;;;;5.70;1.00;;;16.40;99.90;;;;;;5056779;28;20097;-72
2023/10/12 11:28:22;;;;;;;4.95;0.90;;;16.40;99.90;;;;;;5053554;28;20044;-72
2023/10/12 11:31:17;;;;;;;6.07;0.90;;;16.30;99.90;;;;;;5056788;28;20033;-72
2023/10/12 11:33:36;;;;;;;4.72;1.65;;;16.30;99.90;;;;;;5049473;28;20455;-72
2023/10/12 11:36:09;;;;;;;2.45;0.80;;;16.20;99.90;;;;;;5055961;28;20052;-72
2023/10/12 11:38:35;;;;;;;2.17;0.85;;;16.20;99.90;;;;;;5064013;28;20380;-72
2023/10/12 11:41:16;;;;;;;4.05;0.82;;;16.10;99.90;;;;;;5036447;28;20041;-72
2023/10/12 11:43:53;;;;;;;3.92;0.70;;;16.10;99.90;;;;;;5058044;28;20039;-72
2023/10/12 11:46:19;;;;;;;;;;;16.20;99.90;;;;;;5058664;28;20045;-73
2023/10/12 11:48:59;;;;;;;8.23;1.20;;;16.20;99.90;;;;;;5062216;28;19917;-70
2023/10/12 11:51:24;;;;;;;5.32;1.90;;;16.20;99.90;;;;;;5035961;28;20048;-69
2023/10/12 11:53:53;;;;;;;7.25;1.00;;;16.10;99.90;;;;;;5054606;28;20493;-73
2023/10/12 11:56:22;;;;;;;8.05;0.90;;;16.10;99.90;;;;;;5059637;28;20416;-73
2023/10/12 11:58:54;;;;;;;4.82;0.90;;;16.10;99.90;;;;;;5055303;28;20396;-73
2023/10/12 12:01:29;;;;;;;5.93;1.65;;;16.00;99.90;;;;;;5049068;28;20033;-73
2023/10/12 12:03:55;;;;;;;9.25;1.83;;;16.00;99.90;;;;;;5049295;28;20039;-73
2023/10/12 12:06:21;;;;;;;2.10;0.90;;;16.00;99.90;;;;;;5047867;28;20544;-73
2023/10/12 12:08:51;;;;;;;4.45;1.17;;;16.00;99.90;;;;;;5038515;28;20120;-73
2023/10/12 12:11:21;;;;;;;4.65;1.05;;;16.00;99.90;;;;;;5055762;28;20684;-73
2023/10/12 12:13:47;;;;;;;6.53;1.17;;;16.00;99.90;;;;;;5061746;28;20504;-73
2023/10/12 12:16:20;;;;;;;4.90;0.90;;;15.90;99.90;;;;;;5045320;28;20033;-73
2023/10/12 12:18:51;;;;;;;3.95;0.88;;;15.90;99.90;;;;;;5052285;28;20102;-73
2023/10/12 12:21:29;;;;;;;3.10;1.15;;;15.90;99.90;;;;;;5044365;28;20041;-74
2023/10/12 12:23:56;;;;;;;6.55;0.80;;;15.80;99.90;;;;;;5057572;28;20056;-73
2023/10/12 12:26:24;;;;;;;7.47;0.93;;;15.80;99.90;;;;;;5059564;28;20402;-73
2023/10/12 12:29:02;;;;;;;3.25;0.80;;;15.80;99.90;;;;;;5051946;28;20055;-73
2023/10/12 12:31:32;;;;;;;5.70;1.00;;;15.80;99.90;;;;;;5035036;28;20041;-73
2023/10/12 12:33:58;;;;;;;5.95;1.38;;;15.80;99.90;;;;;;5052142;28;20055;-74
2023/10/12 12:36:24;;;;;;;2.40;0.80;;;15.80;99.90;;;;;;5058174;28;20567;-73
2023/10/12 12:41:25;;;;;;;2.50;0.82;;;15.80;99.90;;;;;;5050328;28;20079;-73
2023/10/12 12:43:52;;;;;;;4.88;0.80;;;15.70;99.90;;;;;;5059094;28;20040;-73
2023/10/12 12:46:19;;;;;;;4.22;0.95;;;15.70;99.90;;;;;;5061783;28;20066;-73
2023/10/12 12:48:48;;;;;;;5.50;0.70;;;15.70;99.90;;;;;;5040918;28;20040;-72
2023/10/12 12:51:18;;;;;;;7.28;1.45;;;15.70;99.90;;;;;;5054577;28;20040;-73
2023/10/12 12:53:49;;;;;;;7.25;1.40;;;15.70;99.90;;;;;;5053002;28;20167;-67
2023/10/12 12:56:20;;;;;;;2.22;0.68;;;15.70;99.90;;;;;;5058048;28;20420;-67
2023/10/12 12:58:47;;;;;;;5.22;0.70;;;15.60;99.90;;;;;;5056439;28;20051;-68
2023/10/12 13:01:18;;;;;;;4.80;0.98;;;15.60;99.90;;;;;;5058018;28;20128;-67
2023/10/12 13:03:47;;;;;;;5.97;1.27;;;15.60;99.90;;;;;;5056534;28;20037;-67
2023/10/12 13:06:15;;;;;;;4.38;0.85;;;15.60;99.90;;;;;;5061948;28;20127;-68
2023/10/12 13:08:40;;;;;;;8.13;1.30;;;15.60;99.90;;;;;;5049413;28;20106;-69
2023/10/12 13:11:06;;;;;;;4.97;0.77;;;15.50;99.90;;;;;;5049649;28;20271;-72
2023/10/12 13:13:39;;;;;;;4.90;1.33;;;15.50;99.90;;;;;;5052797;28;20085;-72
2023/10/12 13:16:05;;;;;;;10.25;1.08;;;15.50;99.90;;;;;;5064658;28;20054;-70
2023/10/12 13:18:34;;;;;;;2.80;0.70;;;15.50;99.90;;;;;;5048369;28;20044;-70
2023/10/12 13:21:06;;;;;;;6.80;0.95;;;15.50;99.90;;;;;;5055438;28;20480;-70
2023/10/12 13:23:33;;;;;;;4.13;0.77;;;15.50;99.90;;;;;;5059842;28;20049;-68
2023/10/12 13:26:10;;;;;;;6.20;1.23;;;15.50;99.90;;;;;;5052574;28;20067;-70
2023/10/12 13:28:37;;;;;;;5.85;1.70;;;15.40;99.90;;;;;;5052781;28;20427;-70
2023/10/12 13:31:05;;;;;;;8.88;1.65;;;15.40;99.90;;;;;;5048613;28;20670;-70
2023/10/12 13:33:31;;;;;;;5.43;1.25;;;15.40;99.90;;;;;;5052903;28;20551;-71
2023/10/12 13:35:58;;;;;;;8.57;1.48;;;15.40;99.90;;;;;;5056826;28;20044;-71
2023/10/12 13:38:29;;;;;;;3.15;0.88;;;15.30;99.90;;;;;;5051589;28;20044;-71
2023/10/12 13:40:57;;;;;;;9.63;0.80;;;15.30;99.90;;;;;;5047465;28;20048;-71
2023/10/12 13:43:26;;;;;;;6.43;1.00;;;15.30;99.90;;;;;;5057695;28;20048;-70
2023/10/12 13:45:55;;;;;;;4.65;1.83;;;15.20;99.90;;;;;;5053319;28;20041;-70
2023/10/12 13:48:25;;;;;;;3.05;1.17;;;15.20;99.90;;;;;;5054498;28;20040;-70
2023/10/12 13:50:53;;;;;;;7.90;1.02;;;15.10;99.90;;;;;;5054085;28;20437;-70
2023/10/12 13:53:19;;;;;;;4.85;1.45;;;15.20;99.90;;;;;;5051048;28;20120;-70
2023/10/12 13:55:47;;;;;;;5.20;1.20;;;15.20;99.90;;;;;;5058008;28;20048;-70
2023/10/12 13:58:14;;;;;;;5.93;1.20;;;15.10;99.90;;;;;;5055699;28;20055;-70
2023/10/12 14:00:40;;;;;;;5.95;1.33;;;15.20;99.90;;;;;;5049823;28;20048;-70
2023/10/12 14:03:13;;;;;;;5.47;1.35;;;15.20;99.90;;;;;;5053155;28;20119;-70
2023/10/12 14:05:40;;;;;;;7.82;1.52;;;15.20;99.90;;;;;;5055657;28;20056;-71
2023/10/12 14:08:12;;;;;;;5.68;1.17;;;15.20;99.90;;;;;;5052889;28;20045;-70
2023/10/12 14:10:42;;;;;;;11.98;0.88;;;15.20;99.90;;;;;;5052519;28;20094;-70
2023/10/12 14:13:13;;;;;;;7.60;0.88;;;15.10;99.90;;;;;;5053719;28;20044;-70
2023/10/12 14:15:43;;;;;;;7.32;1.08;;;15.10;99.90;;;;;;5051821;28;20063;-70
2023/10/12 14:18:16;;;;;;;5.85;1.15;;;15.00;99.90;;;;;;5049199;28;20094;-70
2023/10/12 14:20:44;;;;;;;7.72;1.20;;;15.00;99.90;;;;;;5056371;28;20249;-70
2023/10/12 14:23:10;;;;;;;13.15;0.98;;;15.00;99.90;;;;;;5056995;28;20450;-70
2023/10/12 14:25:37;;;;;;;;;;;14.90;99.90;;;;;;5055728;28;20056;-70
2023/10/12 14:28:07;;;;;;;4.38;0.93;;;14.80;99.90;;;;;;5061531;28;20377;-70
2023/10/12 14:30:33;;;;;;;5.70;0.80;;;14.80;99.90;;;;;;5033840;28;20041;-70
2023/10/12 14:33:03;;;;;;;6.97;1.20;;;14.80;99.90;;;;;;5050055;28;20068;-70
2023/10/12 14:35:30;;;;;;;3.80;0.70;;;14.70;99.90;;;;;;5054367;28;20331;-70
2023/10/12 14:37:56;;;;;;;5.18;0.93;;;14.70;99.90;;;;;;5048636;28;20557;-70
2023/10/12 14:40:31;;;;;;;3.53;0.80;;;14.70;99.90;;;;;;5029985;28;20430;-70
2023/10/12 14:43:10;;;;;;;5.00;0.70;;;14.60;99.90;;;;;;5049282;28;20057;-70
2023/10/12 14:45:45;;;;;;;6.38;2.00;;;14.60;99.90;;;;;;5049337;28;20287;-70
2023/10/12 14:48:16;;;;;;;4.45;1.10;;;14.60;99.90;;;;;;5058124;28;20047;-70
2023/10/12 14:50:49;;;;;;;10.25;1.10;;;14.50;99.90;;;;;;5048120;28;20036;-70
2023/10/12 14:53:21;;;;;;;5.72;1.02;;;14.50;99.90;;;;;;5056583;28;20048;-70
2023/10/12 14:55:51;;;;;;;5.80;1.42;;;14.50;99.90;;;;;;5052037;28;20052;-70
2023/10/12 14:58:21;;;;;;;4.03;0.80;;;14.50;99.90;;;;;;5056712;28;20499;-70
2023/10/12 15:00:47;;;;;;;6.43;1.08;;;14.50;99.90;;;;;;5040827;28;20056;-70
2023/10/12 15:03:16;;;;;;;;;;;14.50;99.90;;;;;;5057854;28;20037;-70
2023/10/12 15:05:42;;;;;;;6.40;1.02;;;14.60;99.90;;;;;;5053756;28;19916;-70
2023/10/12 15:08:08;;;;;;;;;;;14.50;99.90;;;;;;5058072;28;20041;-70
2023/10/12 15:10:36;;;;;;;8.60;1.08;;;14.50;99.90;;;;;;5052446;28;19920;-71
2023/10/12 15:13:07;;;;;;;5.05;1.85;;;14.50;99.90;;;;;;5051425;28;20043;-71
2023/10/12 15:15:34;;;;;;;6.35;1.17;;;14.50;99.90;;;;;;5039845;28;20508;-71
2023/10/12 15:18:00;;;;;;;6.35;1.25;;;14.50;99.90;;;;;;5047479;28;20048;-71
2023/10/12 15:20:26;;;;;;;5.18;1.27;;;14.40;99.90;;;;;;5048585;28;20068;-70
2023/10/12 15:22:55;;;;;;;;;;;14.40;99.90;;;;;;5055488;28;20528;-70
2023/10/12 15:25:21;;;;;;;10.38;0.98;;;14.30;99.90;;;;;;5063530;28;19959;-70
2023/10/12 15:27:49;;;;;;;6.53;1.10;;;14.30;99.90;;;;;;5045660;28;20105;-70
2023/10/12 15:30:16;;;;;;;5.82;1.27;;;14.30;99.90;;;;;;5048309;28;20048;-69
2023/10/12 15:32:43;;;;;;;8.63;1.02;;;14.30;99.90;;;;;;5043467;28;21714;-67
2023/10/12 15:35:12;;;;;;;7.18;1.38;;;14.30;99.90;;;;;;5055024;28;20045;-68
2023/10/12 15:37:45;;;;;;;10.02;1.25;;;14.30;99.90;;;;;;5060827;28;20049;-68
2023/10/12 15:40:18;;;;;;;12.02;1.92;;;14.30;99.90;;;;;;5062763;28;20059;-67
2023/10/12 15:42:47;;;;;;;7.32;1.80;;;14.20;99.90;;;;;;5061906;28;20063;-67
2023/10/12 15:45:14;;;;;;;4.43;0.98;;;14.20;99.90;;;;;;5060194;28;20120;-67
2023/10/12 15:47:40;;;;;;;7.07;1.35;;;14.20;99.90;;;;;;5057034;28;20056;-67
2023/10/12 15:50:06;;;;;;;;;;;14.20;99.90;;;;;;5036671;28;20520;-66